createdAt,value
2019-02-27T00:01:20.082Z,12.70
2019-02-27T00:03:49.594Z,13.17
2019-02-27T00:06:19.176Z,14.47
2019-02-27T00:08:48.699Z,14.97
2019-02-27T00:11:18.189Z,16.23
2019-02-27T00:13:47.721Z,14.57
2019-02-27T00:16:17.140Z,13.23
2019-02-27T00:18:46.715Z,13.03
2019-02-27T00:21:16.247Z,12.77
2019-02-27T00:23:45.688Z,15.13
2019-02-27T00:26:15.130Z,16.30
2019-02-27T00:28:44.631Z,15.27
2019-02-27T00:31:14.156Z,14.90
2019-02-27T00:33:43.667Z,15.07
2019-02-27T00:36:13.150Z,14.57
2019-02-27T00:38:42.750Z,13.67
2019-02-27T00:41:13.002Z,12.87
2019-02-27T00:43:42.559Z,13.70
2019-02-27T00:46:13.346Z,14.43
2019-02-27T00:48:43.112Z,13.60
2019-02-27T00:51:12.885Z,12.13
2019-02-27T00:53:42.490Z,13.00
2019-02-27T00:56:12.797Z,12.67
2019-02-27T00:58:42.464Z,12.17
2019-02-27T01:01:14.717Z,12.80
2019-02-27T01:03:44.225Z,13.03
2019-02-27T01:06:14.801Z,12.60
2019-02-27T01:08:44.852Z,13.27
2019-02-27T01:11:18.159Z,12.53
2019-02-27T01:13:45.413Z,11.83
2019-02-27T01:16:16.948Z,12.17
2019-02-27T01:18:46.077Z,13.00
2019-02-27T01:21:19.236Z,12.90
2019-02-27T01:23:46.640Z,13.30
2019-02-27T01:26:16.085Z,12.90
2019-02-27T01:28:45.634Z,12.97
2019-02-27T01:31:15.121Z,12.60
2019-02-27T01:33:44.564Z,12.57
2019-02-27T01:36:15.701Z,12.77
2019-02-27T01:38:45.187Z,12.47
2019-02-27T01:41:14.631Z,11.40
2019-02-27T01:43:44.056Z,13.07
2019-02-27T01:46:13.498Z,12.40
2019-02-27T01:48:43.827Z,11.73
2019-02-27T01:51:13.348Z,12.50
2019-02-27T01:53:42.768Z,13.00
2019-02-27T01:56:12.226Z,12.07
2019-02-27T01:58:44.224Z,12.17
2019-02-27T02:01:12.838Z,12.20
2019-02-27T02:03:42.274Z,14.17
2019-02-27T02:06:11.692Z,13.67
2019-02-27T02:08:41.208Z,13.37
2019-02-27T02:11:10.770Z,14.20
2019-02-27T02:13:59.895Z,13.40
2019-02-27T02:16:34.982Z,13.27
2019-02-27T02:19:28.323Z,14.03
2019-02-27T02:22:27.856Z,13.90
2019-02-27T02:25:09.032Z,13.77
2019-02-27T02:27:50.458Z,14.17
2019-02-27T02:30:29.991Z,14.30
2019-02-27T02:33:30.250Z,15.30
2019-02-27T02:36:13.098Z,15.03
2019-02-27T02:39:19.381Z,14.57
2019-02-27T02:41:51.979Z,14.20
2019-02-27T02:44:39.548Z,14.60
2019-02-27T02:47:21.094Z,15.07
2019-02-27T02:49:57.671Z,14.57
2019-02-27T02:52:48.041Z,13.63
2019-02-27T02:55:38.790Z,14.60
2019-02-27T02:58:27.610Z,14.77
2019-02-27T03:01:15.217Z,15.13
2019-02-27T03:04:12.554Z,14.57
2019-02-27T03:06:55.097Z,15.07
2019-02-27T03:09:39.388Z,14.63
2019-02-27T03:12:31.177Z,14.90
2019-02-27T03:15:03.904Z,14.50
2019-02-27T03:17:54.793Z,14.80
2019-02-27T03:20:44.021Z,15.70
2019-02-27T03:23:25.294Z,14.90
2019-02-27T03:26:03.329Z,15.53
2019-02-27T03:28:52.286Z,15.10
2019-02-27T03:31:33.954Z,16.43
2019-02-27T03:34:29.380Z,16.53
2019-02-27T03:37:14.340Z,16.20
2019-02-27T03:40:20.896Z,16.33
2019-02-27T03:42:53.356Z,17.50
2019-02-27T03:45:42.642Z,16.03
2019-02-27T03:48:27.758Z,15.90
2019-02-27T03:51:24.698Z,15.63
2019-02-27T03:53:56.105Z,15.57
2019-02-27T03:56:46.202Z,15.53
2019-02-27T03:59:18.680Z,14.70
2019-02-27T04:02:10.762Z,16.00
2019-02-27T04:05:07.100Z,15.90
2019-02-27T04:07:59.756Z,16.30
2019-02-27T04:10:31.253Z,15.30
2019-02-27T04:13:00.340Z,15.17
2019-02-27T04:15:29.825Z,15.47
2019-02-27T04:17:58.104Z,15.60
2019-02-27T04:20:27.575Z,14.63
2019-02-27T04:22:56.997Z,15.83
2019-02-27T04:25:31.058Z,16.07
2019-02-27T04:27:57.674Z,15.53
2019-02-27T04:30:27.104Z,16.53
2019-02-27T04:32:56.551Z,15.33
2019-02-27T04:35:25.988Z,15.57
2019-02-27T04:37:55.453Z,16.20
2019-02-27T04:40:24.890Z,17.10
2019-02-27T04:42:56.969Z,15.17
2019-02-27T04:45:25.502Z,15.97
2019-02-27T04:47:54.957Z,14.80
2019-02-27T04:50:25.445Z,15.40
2019-02-27T04:52:57.882Z,15.27
2019-02-27T04:55:26.018Z,16.43
2019-02-27T04:57:55.552Z,17.03
2019-02-27T05:00:26.261Z,17.63
2019-02-27T05:02:56.457Z,16.93
2019-02-27T05:05:25.958Z,17.87
2019-02-27T05:07:55.394Z,16.90
2019-02-27T05:10:24.844Z,16.53
2019-02-27T05:12:54.302Z,17.37
2019-02-27T05:15:23.760Z,16.40
2019-02-27T05:17:55.651Z,16.87
2019-02-27T05:20:24.316Z,17.13
2019-02-27T05:22:53.738Z,16.90
2019-02-27T05:25:23.186Z,17.40
2019-02-27T05:27:52.622Z,17.70
2019-02-27T05:30:22.051Z,17.27
2019-02-27T05:32:51.495Z,16.93
2019-02-27T05:35:24.193Z,17.37
2019-02-27T05:37:52.548Z,17.27
2019-02-27T05:40:23.134Z,16.53
2019-02-27T05:42:53.116Z,17.83
2019-02-27T05:45:22.559Z,17.27
2019-02-27T05:47:52.009Z,18.00
2019-02-27T05:50:21.437Z,17.47
2019-02-27T05:52:50.963Z,16.27
2019-02-27T05:55:20.457Z,16.77
2019-02-27T05:57:50.043Z,16.90
2019-02-27T06:00:20.971Z,17.13
2019-02-27T06:02:50.426Z,18.03
2019-02-27T06:05:19.922Z,17.13
2019-02-27T06:07:49.449Z,17.03
2019-02-27T06:10:20.198Z,16.30
2019-02-27T06:12:50.356Z,16.23
2019-02-27T06:15:19.885Z,16.33
2019-02-27T06:17:49.891Z,16.93
2019-02-27T06:20:19.407Z,16.97
2019-02-27T06:22:48.826Z,18.07
2019-02-27T06:25:23.365Z,17.77
2019-02-27T06:27:49.933Z,17.13
2019-02-27T06:30:20.930Z,17.43
2019-02-27T06:32:50.385Z,17.80
2019-02-27T06:35:21.859Z,18.13
2019-02-27T06:37:51.462Z,17.50
2019-02-27T06:40:20.969Z,17.87
2019-02-27T06:42:53.353Z,18.60
2019-02-27T06:45:24.553Z,18.00
2019-02-27T06:47:54.003Z,17.90
2019-02-27T06:50:25.536Z,17.30
2019-02-27T06:52:54.663Z,17.93
2019-02-27T06:55:25.532Z,18.67
2019-02-27T06:57:55.403Z,17.70
2019-02-27T07:00:26.228Z,16.30
2019-02-27T07:02:56.234Z,15.67
2019-02-27T07:05:25.794Z,16.87
2019-02-27T07:07:55.264Z,16.17
2019-02-27T07:10:24.683Z,17.90
2019-02-27T07:12:55.300Z,17.40
2019-02-27T07:15:24.918Z,16.30
2019-02-27T07:17:54.372Z,18.87
2019-02-27T07:20:25.140Z,17.50
2019-02-27T07:22:54.714Z,18.90
2019-02-27T07:25:24.228Z,19.10
2019-02-27T07:27:53.640Z,18.93
2019-02-27T07:30:23.921Z,22.00
2019-02-27T07:32:55.186Z,20.43
2019-02-27T07:35:26.348Z,19.50
2019-02-27T07:37:55.820Z,19.67
2019-02-27T07:40:25.257Z,20.03
2019-02-27T07:42:54.752Z,19.33
2019-02-27T07:45:24.529Z,19.17
2019-02-27T07:47:53.941Z,19.17
2019-02-27T07:50:23.409Z,18.07
2019-02-27T07:52:52.822Z,17.57
2019-02-27T07:55:23.621Z,17.43
2019-02-27T07:57:58.416Z,17.30
2019-02-27T08:00:26.385Z,15.67
2019-02-27T08:02:56.046Z,16.97
2019-02-27T08:05:27.937Z,15.97
2019-02-27T08:07:56.708Z,17.13
2019-02-27T08:10:26.632Z,18.20
2019-02-27T08:12:56.743Z,17.33
2019-02-27T08:15:26.294Z,17.60
2019-02-27T08:17:57.939Z,18.53
2019-02-27T08:20:27.992Z,18.57
2019-02-27T08:22:57.971Z,17.60
2019-02-27T08:25:27.509Z,16.90
2019-02-27T08:27:56.968Z,17.40
2019-02-27T08:30:28.019Z,17.83
2019-02-27T08:32:57.539Z,16.77
2019-02-27T08:35:26.962Z,17.07
2019-02-27T08:38:02.493Z,17.37
2019-02-27T08:40:27.670Z,16.83
2019-02-27T08:42:57.171Z,17.23
2019-02-27T08:45:27.734Z,17.83
2019-02-27T08:47:57.222Z,17.50
2019-02-27T08:50:29.241Z,17.10
2019-02-27T08:52:58.039Z,16.73
2019-02-27T08:55:27.537Z,16.90
2019-02-27T08:57:57.235Z,17.30
2019-02-27T09:00:29.749Z,17.33
2019-02-27T09:05:31.031Z,17.13
2019-02-27T09:08:00.446Z,16.17
2019-02-27T09:10:30.806Z,15.50
2019-02-27T09:13:05.242Z,15.03
2019-02-27T09:15:31.693Z,16.80
2019-02-27T09:18:02.933Z,15.70
2019-02-27T09:20:32.420Z,15.87
2019-02-27T09:23:01.877Z,16.40
2019-02-27T09:25:31.353Z,15.93
2019-02-27T09:28:00.890Z,15.03
2019-02-27T09:30:31.393Z,15.50
2019-02-27T09:33:00.833Z,15.83
2019-02-27T09:35:34.600Z,15.20
2019-02-27T09:38:01.624Z,15.20
2019-02-27T09:40:31.064Z,15.73
2019-02-27T09:43:00.492Z,15.20
2019-02-27T09:45:35.521Z,15.47
2019-02-27T09:48:05.374Z,14.23
2019-02-27T09:50:47.787Z,15.97
2019-02-27T09:53:14.607Z,16.53
2019-02-27T09:55:44.122Z,16.60
2019-02-27T09:58:13.613Z,17.07
2019-02-27T10:01:07.280Z,15.50
2019-02-27T10:03:36.698Z,15.07
2019-02-27T10:06:08.775Z,15.47
2019-02-27T10:08:37.370Z,16.40
2019-02-27T10:11:06.855Z,15.60
2019-02-27T10:13:37.942Z,15.13
2019-02-27T10:16:07.633Z,16.63
2019-02-27T10:18:37.151Z,16.73
2019-02-27T10:21:06.588Z,16.30
2019-02-27T10:23:36.124Z,16.30
2019-02-27T10:26:05.622Z,16.27
2019-02-27T10:28:38.788Z,16.50
2019-02-27T10:31:06.288Z,16.43
2019-02-27T10:33:35.728Z,15.90
2019-02-27T10:36:05.271Z,15.63
2019-02-27T10:38:40.108Z,16.13
2019-02-27T10:41:05.919Z,15.73
2019-02-27T10:43:35.365Z,15.63
2019-02-27T10:46:04.817Z,14.90
2019-02-27T10:48:34.345Z,16.07
2019-02-27T10:51:03.804Z,15.70
2019-02-27T10:53:33.230Z,16.13
2019-02-27T10:56:02.760Z,15.43
2019-02-27T10:58:33.278Z,15.10
2019-02-27T11:01:02.825Z,14.87
2019-02-27T11:03:33.515Z,14.80
2019-02-27T11:06:03.043Z,14.90
2019-02-27T11:08:32.601Z,15.07
2019-02-27T11:11:02.069Z,14.03
2019-02-27T11:13:31.556Z,13.53
2019-02-27T11:16:01.173Z,13.83
2019-02-27T11:18:30.693Z,12.27
2019-02-27T11:21:00.365Z,12.07
2019-02-27T11:23:29.959Z,12.90
2019-02-27T11:25:59.553Z,11.80
2019-02-27T11:28:28.983Z,12.90
2019-02-27T11:30:58.428Z,11.83
2019-02-27T11:33:32.718Z,12.17
2019-02-27T11:36:00.234Z,11.57
2019-02-27T11:38:29.663Z,12.43
2019-02-27T11:40:59.105Z,12.97
2019-02-27T11:43:28.552Z,12.53
2019-02-27T11:45:58.669Z,12.53
2019-02-27T11:48:28.227Z,13.10
2019-02-27T11:50:57.666Z,12.70
2019-02-27T11:53:27.167Z,12.17
2019-02-27T11:55:56.697Z,12.40
2019-02-27T11:58:26.149Z,12.87
2019-02-27T12:00:55.651Z,12.70
2019-02-27T12:03:25.100Z,12.10
2019-02-27T12:05:54.660Z,11.47
2019-02-27T12:08:25.786Z,11.60
2019-02-27T12:10:55.414Z,11.10
2019-02-27T12:13:24.943Z,9.80
2019-02-27T12:15:54.358Z,9.90
2019-02-27T12:18:24.878Z,9.53
2019-02-27T12:20:55.704Z,9.50
2019-02-27T12:23:26.088Z,9.27
2019-02-27T12:25:55.614Z,8.57
2019-02-27T12:28:25.224Z,8.80
2019-02-27T12:30:54.728Z,8.43
2019-02-27T12:33:24.177Z,8.30
2019-02-27T12:35:53.670Z,9.23
2019-02-27T12:38:23.122Z,9.17
2019-02-27T12:40:52.619Z,9.03
2019-02-27T12:43:22.208Z,9.27
2019-02-27T12:45:51.624Z,8.80
2019-02-27T12:48:21.138Z,7.97
2019-02-27T12:50:50.548Z,8.40
2019-02-27T12:53:21.557Z,8.17
2019-02-27T12:55:51.167Z,8.47
2019-02-27T12:58:20.691Z,8.17
2019-02-27T13:00:50.181Z,6.80
2019-02-27T13:03:19.686Z,6.70
2019-02-27T13:05:49.272Z,6.60
2019-02-27T13:08:19.462Z,6.90
2019-02-27T13:10:49.006Z,7.30
2019-02-27T13:13:19.618Z,7.78
2019-02-27T13:15:50.107Z,7.30
2019-02-27T13:18:19.623Z,6.27
2019-02-27T13:20:49.071Z,6.80
2019-02-27T13:23:18.488Z,6.33
2019-02-27T13:25:47.943Z,6.28
2019-02-27T13:28:17.358Z,6.58
2019-02-27T13:30:46.797Z,7.40
2019-02-27T13:33:16.281Z,6.47
2019-02-27T13:35:45.781Z,6.67
2019-02-27T13:38:18.362Z,6.55
2019-02-27T13:40:46.480Z,5.72
2019-02-27T13:43:15.889Z,5.35
2019-02-27T13:45:47.598Z,6.03
2019-02-27T13:48:16.518Z,6.37
2019-02-27T13:50:45.964Z,6.60
2019-02-27T13:53:15.390Z,5.92
2019-02-27T13:55:45.300Z,6.58
2019-02-27T13:58:15.977Z,7.50
2019-02-27T14:00:45.495Z,7.97
2019-02-27T14:03:14.977Z,7.70
2019-02-27T14:05:44.553Z,7.15
2019-02-27T14:08:14.150Z,7.92
2019-02-27T14:10:43.553Z,8.35
2019-02-27T14:13:13.139Z,8.97
2019-02-27T14:15:42.594Z,8.27
2019-02-27T14:18:13.460Z,8.97
2019-02-27T14:20:43.456Z,9.37
2019-02-27T14:23:14.530Z,8.33
2019-02-27T14:25:44.166Z,8.57
2019-02-27T14:28:13.668Z,8.50
2019-02-27T14:30:51.362Z,8.53
2019-02-27T14:33:20.858Z,7.83
2019-02-27T14:35:50.368Z,8.18
2019-02-27T14:38:21.946Z,8.35
2019-02-27T14:40:51.010Z,8.25
2019-02-27T14:43:20.519Z,8.10
2019-02-27T14:45:50.830Z,8.15
2019-02-27T14:48:22.291Z,9.55
2019-02-27T14:50:51.819Z,9.48
2019-02-27T14:53:21.300Z,9.75
2019-02-27T14:55:50.814Z,9.95
2019-02-27T14:58:24.012Z,10.48
2019-02-27T15:00:51.476Z,10.38
2019-02-27T15:03:20.988Z,10.78
2019-02-27T15:05:50.507Z,10.82
2019-02-27T15:08:20.095Z,11.28
2019-02-27T15:10:49.621Z,12.03
2019-02-27T15:13:19.129Z,10.95
2019-02-27T15:15:48.601Z,11.70
2019-02-27T15:18:18.044Z,12.10
2019-02-27T15:20:47.494Z,11.53
2019-02-27T15:23:18.547Z,11.68
2019-02-27T15:25:48.005Z,12.28
2019-02-27T15:28:17.509Z,11.78
2019-02-27T15:30:47.371Z,13.20
2019-02-27T15:33:16.890Z,11.53
2019-02-27T15:35:46.365Z,12.60
2019-02-27T15:38:15.863Z,13.03
2019-02-27T15:40:45.527Z,12.05
2019-02-27T15:43:17.450Z,11.75
2019-02-27T15:45:48.099Z,12.17
2019-02-27T15:48:17.649Z,12.27
2019-02-27T15:50:47.169Z,12.50
2019-02-27T15:53:16.765Z,12.67
2019-02-27T15:55:46.265Z,11.38
2019-02-27T15:58:15.798Z,11.60
2019-02-27T16:00:45.289Z,10.50
2019-02-27T16:03:14.813Z,11.63
2019-02-27T16:05:44.275Z,10.50
2019-02-27T16:08:15.405Z,11.30
2019-02-27T16:10:54.347Z,9.53
2019-02-27T16:13:16.067Z,10.80
2019-02-27T16:15:48.450Z,11.20
2019-02-27T16:18:17.552Z,21.07
2019-02-27T16:20:49.809Z,22.83
2019-02-27T16:23:18.133Z,19.53
2019-02-27T16:25:52.836Z,17.37
2019-02-27T16:28:18.796Z,12.47
2019-02-27T16:30:48.358Z,11.00
2019-02-27T16:33:23.577Z,10.07
2019-02-27T16:35:48.937Z,8.80
2019-02-27T16:38:18.379Z,9.30
2019-02-27T16:40:52.091Z,9.27
2019-02-27T16:43:18.954Z,10.13
2019-02-27T16:45:48.393Z,11.17
2019-02-27T16:48:17.912Z,10.20
2019-02-27T16:50:48.248Z,9.77
2019-02-27T16:53:19.456Z,9.17
2019-02-27T16:55:48.932Z,9.50
2019-02-27T16:58:18.352Z,9.47
2019-02-27T17:00:47.958Z,9.07
2019-02-27T17:03:17.386Z,8.47
2019-02-27T17:05:46.853Z,8.27
2019-02-27T17:08:16.422Z,8.20
2019-02-27T17:10:46.011Z,8.80
2019-02-27T17:13:15.627Z,8.27
2019-02-27T17:15:45.128Z,8.00
2019-02-27T17:18:14.636Z,8.63
2019-02-27T17:20:46.407Z,10.40
2019-02-27T17:23:15.581Z,14.17
2019-02-27T17:25:45.109Z,12.83
2019-02-27T17:28:14.549Z,13.90
2019-02-27T17:30:44.014Z,12.97
2019-02-27T17:33:13.462Z,12.07
2019-02-27T17:35:42.929Z,11.73
2019-02-27T17:38:13.700Z,11.83
2019-02-27T17:40:44.596Z,11.17
2019-02-27T17:43:15.197Z,12.80
2019-02-27T17:45:46.942Z,14.60
2019-02-27T17:48:15.803Z,18.60
2019-02-27T17:50:45.223Z,25.70
2019-02-27T17:53:14.681Z,25.50
2019-02-27T17:55:45.896Z,25.50
2019-02-27T17:58:15.308Z,18.73
2019-02-27T18:00:49.979Z,13.53
2019-02-27T18:03:17.635Z,11.70
2019-02-27T18:05:47.269Z,10.80
2019-02-27T18:08:17.191Z,9.73
2019-02-27T18:10:46.786Z,9.47
2019-02-27T18:13:19.240Z,9.97
2019-02-27T18:15:48.759Z,9.03
2019-02-27T18:18:18.263Z,10.33
2019-02-27T18:20:47.722Z,9.00
2019-02-27T18:23:17.176Z,10.10
2019-02-27T18:25:48.403Z,9.17
2019-02-27T18:28:17.813Z,9.87
2019-02-27T18:30:47.258Z,9.57
2019-02-27T18:33:17.511Z,9.07
2019-02-27T18:35:47.040Z,10.63
2019-02-27T18:38:18.507Z,13.07
2019-02-27T18:40:47.637Z,16.80
2019-02-27T18:43:17.102Z,19.17
2019-02-27T18:45:48.248Z,18.97
2019-02-27T18:48:17.769Z,16.87
2019-02-27T18:50:47.224Z,17.90
2019-02-27T18:53:16.797Z,20.00
2019-02-27T18:55:46.336Z,21.17
2019-02-27T18:58:18.196Z,22.93
2019-02-27T19:00:47.066Z,23.50
2019-02-27T19:03:16.640Z,23.03
2019-02-27T19:05:46.251Z,23.60
2019-02-27T19:08:15.836Z,22.27
2019-02-27T19:10:45.361Z,21.20
2019-02-27T19:13:14.817Z,18.60
2019-02-27T19:15:46.332Z,14.90
2019-02-27T19:18:15.710Z,14.73
2019-02-27T19:20:46.806Z,13.73
2019-02-27T19:23:17.823Z,14.00
2019-02-27T19:25:47.979Z,11.63
2019-02-27T19:28:17.473Z,12.03
2019-02-27T19:30:47.064Z,12.83
2019-02-27T19:33:16.565Z,12.77
2019-02-27T19:35:47.714Z,12.70
2019-02-27T19:38:17.226Z,12.53
2019-02-27T19:40:46.727Z,12.40
2019-02-27T19:43:18.194Z,12.13
2019-02-27T19:45:47.511Z,11.73
2019-02-27T19:48:17.109Z,12.13
2019-02-27T19:50:46.672Z,12.07
2019-02-27T19:53:17.230Z,13.37
2019-02-27T19:55:46.675Z,14.63
2019-02-27T19:58:18.161Z,15.60
2019-02-27T20:00:48.766Z,16.97
2019-02-27T20:03:20.133Z,16.97
2019-02-27T20:05:50.562Z,15.17
2019-02-27T20:08:20.773Z,14.73
2019-02-27T20:10:50.827Z,12.90
2019-02-27T20:13:20.251Z,11.37
2019-02-27T20:15:50.160Z,13.10
2019-02-27T20:18:19.684Z,12.33
2019-02-27T20:20:49.599Z,11.80
2019-02-27T20:23:19.025Z,13.73
2019-02-27T20:25:48.613Z,14.50
2019-02-27T20:28:18.479Z,15.17
2019-02-27T20:30:48.058Z,13.57
2019-02-27T20:33:17.687Z,14.73
2019-02-27T20:35:47.361Z,13.70
2019-02-27T20:38:17.063Z,13.17
2019-02-27T20:40:46.487Z,11.80
2019-02-27T20:43:17.065Z,12.37
2019-02-27T20:45:46.861Z,11.57
2019-02-27T20:48:17.875Z,11.10
2019-02-27T20:50:50.090Z,11.57
2019-02-27T20:53:21.041Z,12.43
2019-02-27T20:55:50.781Z,12.03
2019-02-27T20:58:22.068Z,11.73
2019-02-27T21:00:51.436Z,11.93
2019-02-27T21:03:21.011Z,11.67
2019-02-27T21:05:50.524Z,11.30
2019-02-27T21:08:20.116Z,12.27
2019-02-27T21:10:54.719Z,12.30
2019-02-27T21:13:20.856Z,12.83
2019-02-27T21:15:51.384Z,15.07
2019-02-27T21:18:20.886Z,15.33
2019-02-27T21:20:50.959Z,16.17
2019-02-27T21:23:20.555Z,14.73
2019-02-27T21:25:49.999Z,14.50
2019-02-27T21:28:21.139Z,15.00
2019-02-27T21:30:52.291Z,12.97
2019-02-27T21:33:22.290Z,12.37
2019-02-27T21:35:51.752Z,11.33
2019-02-27T21:38:21.181Z,11.73
2019-02-27T21:40:50.620Z,11.23
2019-02-27T21:43:25.247Z,12.20
2019-02-27T21:45:52.077Z,15.90
2019-02-27T21:48:23.502Z,17.00
2019-02-27T21:50:52.702Z,16.87
2019-02-27T21:53:22.137Z,16.70
2019-02-27T21:55:51.584Z,16.90
2019-02-27T21:58:21.220Z,16.13
2019-02-27T22:00:50.740Z,15.87
2019-02-27T22:03:20.226Z,14.60
2019-02-27T22:05:52.522Z,16.20
2019-02-27T22:08:20.795Z,15.13
2019-02-27T22:10:53.669Z,14.70
2019-02-27T22:13:28.763Z,16.43
2019-02-27T22:15:55.907Z,17.43
2019-02-27T22:18:23.744Z,16.57
2019-02-27T22:20:59.489Z,14.17
2019-02-27T22:23:28.366Z,13.57
2019-02-27T22:25:57.923Z,13.83
2019-02-27T22:28:28.799Z,15.20
2019-02-27T22:30:58.403Z,15.80
2019-02-27T22:33:28.798Z,17.13
2019-02-27T22:35:58.237Z,18.03
2019-02-27T22:38:28.800Z,15.90
2019-02-27T22:40:58.257Z,17.47
2019-02-27T22:43:27.740Z,16.90
2019-02-27T22:45:57.180Z,17.87
2019-02-27T22:48:28.718Z,23.60
2019-02-27T22:50:57.831Z,19.73
2019-02-27T22:53:28.761Z,17.53
2019-02-27T22:55:58.399Z,14.70
2019-02-27T22:58:28.363Z,13.10
2019-02-27T23:01:02.352Z,12.73
2019-02-27T23:03:36.585Z,11.97
2019-02-27T23:06:09.247Z,12.57
2019-02-27T23:08:37.799Z,13.07
2019-02-27T23:11:09.289Z,15.10
2019-02-27T23:13:44.127Z,15.43
2019-02-27T23:16:14.381Z,15.53
2019-02-27T23:18:43.975Z,14.57
2019-02-27T23:21:13.537Z,17.27
2019-02-27T23:23:42.977Z,15.57
2019-02-27T23:26:12.488Z,13.73
2019-02-27T23:28:41.916Z,12.70
2019-02-27T23:31:11.422Z,12.30
2019-02-27T23:33:40.841Z,12.30
2019-02-27T23:36:10.373Z,12.07
2019-02-27T23:38:41.476Z,13.30
2019-02-27T23:41:10.948Z,13.33
2019-02-27T23:43:40.459Z,14.07
2019-02-27T23:46:09.917Z,12.90
2019-02-27T23:48:40.330Z,13.10
2019-02-27T23:51:09.776Z,13.53
2019-02-27T23:53:39.295Z,12.77
2019-02-27T23:56:08.784Z,13.20
2019-02-27T23:58:38.231Z,12.30
